createdAt,value
2023-04-29T00:01:27.163Z,18.67
2023-04-29T00:03:54.270Z,19.23
2023-04-29T00:06:21.614Z,18.30
2023-04-29T00:08:48.648Z,19.23
2023-04-29T00:11:15.600Z,19.50
2023-04-29T00:13:42.312Z,20.17
2023-04-29T00:16:11.953Z,18.87
2023-04-29T00:18:45.026Z,19.27
2023-04-29T00:21:12.166Z,18.90
2023-04-29T00:23:38.934Z,20.33
2023-04-29T00:26:05.903Z,21.23
2023-04-29T00:28:33.309Z,21.93
2023-04-29T00:31:00.749Z,21.77
2023-04-29T00:33:27.576Z,22.37
2023-04-29T00:35:57.170Z,22.80
2023-04-29T00:38:24.066Z,21.83
2023-04-29T00:40:55.269Z,23.37
2023-04-29T00:43:22.458Z,21.60
2023-04-29T00:45:49.293Z,23.73
2023-04-29T00:48:20.133Z,21.90
2023-04-29T00:50:47.708Z,21.50
2023-04-29T00:53:14.834Z,22.80
2023-04-29T00:55:44.055Z,21.90
2023-04-29T00:58:11.855Z,21.43
2023-04-29T01:00:41.523Z,21.17
2023-04-29T01:03:10.626Z,21.13
2023-04-29T01:05:40.699Z,20.10
2023-04-29T01:08:51.190Z,21.90
2023-04-29T01:11:23.853Z,21.53
2023-04-29T01:13:51.886Z,22.00
2023-04-29T01:16:38.362Z,22.37
2023-04-29T01:19:44.092Z,21.53
2023-04-29T01:22:11.608Z,22.63
2023-04-29T01:24:39.234Z,22.90
2023-04-29T01:27:32.594Z,23.00
2023-04-29T01:30:36.107Z,23.30
2023-04-29T01:33:28.483Z,23.73
2023-04-29T01:36:25.435Z,24.77
2023-04-29T01:39:14.564Z,25.67
2023-04-29T01:41:52.103Z,23.90
2023-04-29T01:44:26.815Z,26.03
2023-04-29T01:46:54.739Z,25.77
2023-04-29T01:49:31.086Z,25.87
2023-04-29T01:52:00.862Z,25.50
2023-04-29T01:54:30.706Z,28.20
2023-04-29T01:56:58.613Z,25.37
2023-04-29T01:59:26.767Z,27.03
2023-04-29T02:01:58.790Z,27.43
2023-04-29T02:04:26.315Z,28.23
2023-04-29T02:06:53.314Z,26.83
2023-04-29T02:09:20.483Z,27.97
2023-04-29T02:11:47.330Z,28.07
2023-04-29T02:14:14.518Z,27.20
2023-04-29T02:16:44.116Z,27.70
2023-04-29T02:19:11.894Z,27.43
2023-04-29T02:21:40.174Z,28.13
2023-04-29T02:24:07.292Z,26.07
2023-04-29T02:26:38.271Z,27.60
2023-04-29T02:29:05.143Z,28.07
2023-04-29T02:31:32.687Z,26.23
2023-04-29T02:34:00.664Z,26.30
2023-04-29T02:36:28.552Z,26.50
2023-04-29T02:38:56.430Z,25.63
2023-04-29T02:41:23.645Z,26.47
2023-04-29T02:43:50.543Z,23.63
2023-04-29T02:46:20.232Z,23.63
2023-04-29T02:48:47.227Z,23.23
2023-04-29T02:51:14.514Z,24.23
2023-04-29T02:53:41.354Z,23.07
2023-04-29T02:56:08.131Z,24.33
2023-04-29T02:58:34.915Z,21.97
2023-04-29T03:01:01.672Z,20.87
2023-04-29T03:03:28.599Z,20.73
2023-04-29T03:05:55.472Z,21.90
2023-04-29T03:08:22.400Z,22.70
2023-04-29T03:10:49.210Z,21.63
2023-04-29T03:13:16.042Z,20.80
2023-04-29T03:15:44.312Z,22.07
2023-04-29T03:18:14.398Z,20.63
2023-04-29T03:20:41.170Z,20.60
2023-04-29T03:23:07.962Z,19.43
2023-04-29T03:25:34.811Z,19.90
2023-04-29T03:28:01.564Z,20.03
2023-04-29T03:30:28.400Z,19.60
2023-04-29T03:32:55.248Z,21.10
2023-04-29T03:35:21.956Z,19.90
2023-04-29T03:37:51.741Z,19.67
2023-04-29T03:40:18.951Z,19.80
2023-04-29T03:42:45.914Z,20.97
2023-04-29T03:45:14.470Z,21.03
2023-04-29T03:47:41.596Z,20.43
2023-04-29T03:50:09.120Z,19.23
2023-04-29T03:52:38.796Z,18.10
2023-04-29T03:55:05.976Z,19.23
2023-04-29T03:57:32.803Z,19.23
2023-04-29T03:59:59.562Z,18.20
2023-04-29T04:02:26.672Z,19.03
2023-04-29T04:04:55.350Z,18.77
2023-04-29T04:07:22.207Z,18.63
2023-04-29T04:09:49.321Z,17.50
2023-04-29T04:12:16.057Z,18.20
2023-04-29T04:14:42.861Z,18.40
2023-04-29T04:17:09.641Z,18.13
2023-04-29T04:19:36.890Z,18.27
2023-04-29T04:22:04.767Z,17.13
2023-04-29T04:24:31.632Z,17.10
2023-04-29T04:26:58.454Z,15.80
2023-04-29T04:29:25.337Z,17.20
2023-04-29T04:31:52.173Z,15.53
2023-04-29T04:34:18.997Z,16.20
2023-04-29T04:36:45.968Z,16.03
2023-04-29T04:39:12.664Z,15.33
2023-04-29T04:41:39.467Z,16.00
2023-04-29T04:44:06.500Z,14.33
2023-04-29T04:46:33.441Z,14.10
2023-04-29T04:49:00.267Z,15.30
2023-04-29T04:51:28.950Z,16.00
2023-04-29T04:53:55.865Z,14.87
2023-04-29T04:56:22.805Z,15.80
2023-04-29T04:58:49.668Z,15.27
2023-04-29T05:01:16.730Z,16.03
2023-04-29T05:03:44.146Z,17.07
2023-04-29T05:06:11.062Z,17.20
2023-04-29T05:08:38.213Z,16.67
2023-04-29T05:11:07.503Z,17.30
2023-04-29T05:13:34.421Z,16.07
2023-04-29T05:16:06.250Z,17.93
2023-04-29T05:18:33.275Z,16.83
2023-04-29T05:21:00.135Z,16.57
2023-04-29T05:23:26.918Z,17.00
2023-04-29T05:25:53.824Z,18.33
2023-04-29T05:28:20.706Z,17.37
2023-04-29T05:30:50.600Z,17.90
2023-04-29T05:33:17.538Z,16.70
2023-04-29T05:35:44.595Z,17.07
2023-04-29T05:38:11.413Z,15.87
2023-04-29T05:40:41.058Z,17.00
2023-04-29T05:43:07.909Z,16.03
2023-04-29T05:45:34.687Z,16.73
2023-04-29T05:48:01.573Z,16.93
2023-04-29T05:50:28.314Z,16.60
2023-04-29T05:52:56.538Z,16.83
2023-04-29T05:55:23.636Z,15.13
2023-04-29T05:57:50.551Z,14.40
2023-04-29T06:00:17.302Z,15.50
2023-04-29T06:02:57.586Z,14.93
2023-04-29T06:05:27.526Z,15.90
2023-04-29T06:07:54.767Z,14.97
2023-04-29T06:10:21.522Z,15.20
2023-04-29T06:12:51.557Z,14.77
2023-04-29T06:15:18.362Z,14.87
2023-04-29T06:17:45.157Z,14.73
2023-04-29T06:20:12.551Z,14.83
2023-04-29T06:22:39.347Z,14.77
2023-04-29T06:25:06.748Z,14.27
2023-04-29T06:27:34.607Z,14.60
2023-04-29T06:30:01.744Z,14.70
2023-04-29T06:32:28.638Z,14.73
2023-04-29T06:34:55.366Z,14.07
2023-04-29T06:37:25.137Z,14.10
2023-04-29T06:39:52.055Z,14.30
2023-04-29T06:42:18.948Z,15.47
2023-04-29T06:44:45.786Z,14.60
2023-04-29T06:47:12.732Z,14.67
2023-04-29T06:49:39.765Z,14.43
2023-04-29T06:52:06.926Z,13.97
2023-04-29T06:54:33.679Z,13.93
2023-04-29T06:57:00.748Z,12.03
2023-04-29T06:59:27.519Z,12.50
2023-04-29T07:01:54.470Z,12.40
2023-04-29T07:04:21.532Z,12.73
2023-04-29T07:06:48.562Z,11.90
2023-04-29T07:09:15.502Z,12.00
2023-04-29T07:11:42.741Z,11.67
2023-04-29T07:14:09.588Z,12.33
2023-04-29T07:16:36.367Z,11.67
2023-04-29T07:19:03.222Z,12.23
2023-04-29T07:21:30.778Z,11.87
2023-04-29T07:23:59.424Z,11.60
2023-04-29T07:26:26.331Z,11.60
2023-04-29T07:28:53.289Z,12.23
2023-04-29T07:31:20.227Z,11.87
2023-04-29T07:33:47.621Z,12.57
2023-04-29T07:36:14.677Z,13.00
2023-04-29T07:38:41.404Z,12.13
2023-04-29T07:41:08.172Z,11.47
2023-04-29T07:43:34.842Z,12.63
2023-04-29T07:46:01.756Z,12.80
2023-04-29T07:48:28.666Z,12.63
2023-04-29T07:50:55.440Z,12.47
2023-04-29T07:53:22.259Z,12.70
2023-04-29T07:55:49.250Z,12.93
2023-04-29T07:58:18.929Z,12.57
2023-04-29T08:00:47.281Z,11.77
2023-04-29T08:03:16.850Z,12.30
2023-04-29T08:05:45.274Z,12.20
2023-04-29T08:08:12.130Z,12.33
2023-04-29T08:10:43.274Z,11.87
2023-04-29T08:13:10.126Z,11.70
2023-04-29T08:15:36.925Z,10.20
2023-04-29T08:18:06.488Z,10.13
2023-04-29T08:20:36.358Z,10.10
2023-04-29T08:23:03.161Z,11.07
2023-04-29T08:25:30.328Z,10.37
2023-04-29T08:27:57.820Z,9.57
2023-04-29T08:30:24.636Z,8.83
2023-04-29T08:32:51.527Z,9.77
2023-04-29T08:35:19.544Z,10.03
2023-04-29T08:37:47.631Z,9.23
2023-04-29T08:40:17.568Z,8.30
2023-04-29T08:42:47.398Z,8.00
2023-04-29T08:45:22.343Z,9.03
2023-04-29T08:47:51.457Z,8.90
2023-04-29T08:50:18.559Z,8.63
2023-04-29T08:52:45.359Z,8.40
2023-04-29T08:55:18.545Z,8.40
2023-04-29T08:57:47.110Z,8.20
2023-04-29T09:00:18.504Z,7.37
2023-04-29T09:02:49.573Z,7.10
2023-04-29T09:05:16.820Z,7.90
2023-04-29T09:07:44.318Z,7.43
2023-04-29T09:10:15.151Z,8.00
2023-04-29T09:12:41.925Z,7.60
2023-04-29T09:15:09.219Z,7.33
2023-04-29T09:17:43.069Z,6.77
2023-04-29T09:20:22.075Z,7.23
2023-04-29T09:22:50.728Z,6.23
2023-04-29T09:25:17.805Z,6.67
2023-04-29T09:27:44.823Z,6.97
2023-04-29T09:30:16.627Z,8.17
2023-04-29T09:32:45.145Z,8.13
2023-04-29T09:35:28.393Z,8.17
2023-04-29T09:38:15.001Z,7.60
2023-04-29T09:40:58.329Z,8.07
2023-04-29T09:43:26.252Z,7.40
2023-04-29T09:45:53.414Z,7.50
2023-04-29T09:48:21.886Z,6.97
2023-04-29T09:51:03.843Z,6.77
2023-04-29T09:53:34.065Z,6.53
2023-04-29T09:56:02.732Z,6.77
2023-04-29T09:58:38.959Z,6.37
2023-04-29T10:01:06.686Z,6.03
2023-04-29T10:03:39.164Z,5.90
2023-04-29T10:06:07.688Z,6.27
2023-04-29T10:08:35.023Z,5.90
2023-04-29T10:11:03.594Z,5.70
2023-04-29T10:13:32.672Z,5.50
2023-04-29T10:16:21.932Z,5.47
2023-04-29T10:18:53.815Z,6.30
2023-04-29T10:21:27.216Z,5.20
2023-04-29T10:23:56.655Z,5.00
2023-04-29T10:26:27.582Z,5.50
2023-04-29T10:28:56.596Z,5.50
2023-04-29T10:31:27.697Z,4.37
2023-04-29T10:34:07.691Z,4.27
2023-04-29T10:36:37.323Z,4.43
2023-04-29T10:39:07.771Z,4.60
2023-04-29T10:41:42.430Z,4.63
2023-04-29T10:44:09.282Z,4.93
2023-04-29T10:46:37.808Z,4.43
2023-04-29T10:49:06.779Z,4.17
2023-04-29T10:51:35.995Z,4.40
2023-04-29T10:54:08.205Z,4.20
2023-04-29T10:56:45.015Z,4.10
2023-04-29T10:59:13.656Z,5.13
2023-04-29T11:01:42.932Z,4.70
2023-04-29T11:04:12.731Z,4.13
2023-04-29T11:06:46.055Z,4.43
2023-04-29T11:09:47.579Z,4.40
2023-04-29T11:12:21.408Z,4.10
2023-04-29T11:14:55.049Z,4.60
2023-04-29T11:17:23.950Z,4.13
2023-04-29T11:19:52.343Z,3.80
2023-04-29T11:22:19.495Z,3.60
2023-04-29T11:25:02.681Z,3.60
2023-04-29T11:27:37.301Z,4.27
2023-04-29T11:30:08.444Z,3.97
2023-04-29T11:32:37.872Z,4.67
2023-04-29T11:35:18.574Z,4.20
2023-04-29T11:37:47.160Z,4.13
2023-04-29T11:40:17.495Z,4.53
2023-04-29T11:42:46.459Z,3.83
2023-04-29T11:45:15.675Z,3.97
2023-04-29T11:47:47.883Z,4.07
2023-04-29T11:50:17.846Z,4.10
2023-04-29T11:52:49.614Z,4.20
2023-04-29T11:55:16.696Z,4.40
2023-04-29T11:57:43.775Z,3.83
2023-04-29T12:00:13.021Z,4.63
2023-04-29T12:02:43.509Z,4.50
2023-04-29T12:05:12.815Z,4.33
2023-04-29T12:07:40.476Z,4.30
2023-04-29T12:10:11.751Z,3.93
2023-04-29T12:12:41.059Z,3.67
2023-04-29T12:15:10.124Z,3.70
2023-04-29T12:17:40.945Z,3.83
2023-04-29T12:20:12.733Z,4.17
2023-04-29T12:22:39.979Z,3.80
2023-04-29T12:25:10.033Z,4.60
2023-04-29T12:27:39.792Z,4.00
2023-04-29T12:30:13.134Z,4.27
2023-04-29T12:32:40.262Z,3.97
2023-04-29T12:35:16.582Z,3.70
2023-04-29T12:37:43.396Z,4.03
2023-04-29T12:40:16.921Z,3.80
2023-04-29T12:42:49.515Z,3.00
2023-04-29T12:45:33.181Z,3.50
2023-04-29T12:48:01.611Z,3.23
2023-04-29T12:50:35.956Z,3.33
2023-04-29T12:53:07.383Z,3.50
2023-04-29T12:55:36.266Z,3.07
2023-04-29T12:58:04.526Z,3.17
2023-04-29T13:00:32.103Z,3.57
2023-04-29T13:02:59.276Z,3.00
2023-04-29T13:05:26.176Z,3.03
2023-04-29T13:07:53.063Z,3.07
2023-04-29T13:10:19.967Z,3.70
2023-04-29T13:12:47.853Z,3.13
2023-04-29T13:15:15.739Z,3.10
2023-04-29T13:17:42.945Z,3.07
2023-04-29T13:20:11.689Z,3.20
2023-04-29T13:22:38.546Z,3.10
2023-04-29T13:25:05.876Z,3.37
2023-04-29T13:27:32.756Z,2.77
2023-04-29T13:29:59.591Z,2.90
2023-04-29T13:32:26.325Z,3.00
2023-04-29T13:34:53.937Z,3.20
2023-04-29T13:37:21.013Z,3.20
2023-04-29T13:39:48.115Z,3.20
2023-04-29T13:42:15.821Z,3.00
2023-04-29T13:44:52.219Z,2.83
2023-04-29T13:47:25.664Z,2.65
2023-04-29T13:50:22.252Z,2.20
2023-04-29T13:53:19.867Z,2.70
2023-04-29T13:56:24.491Z,2.90
2023-04-29T13:58:55.985Z,3.27
2023-04-29T14:01:17.588Z,2.53
2023-04-29T14:03:50.128Z,2.87
2023-04-29T14:06:17.148Z,3.00
2023-04-29T14:08:44.710Z,3.00
2023-04-29T14:11:11.546Z,2.70
2023-04-29T14:13:38.481Z,2.63
2023-04-29T14:16:07.055Z,2.60
2023-04-29T14:18:33.916Z,2.90
2023-04-29T14:21:00.733Z,2.37
2023-04-29T14:23:27.631Z,2.77
2023-04-29T14:26:11.596Z,2.83
2023-04-29T14:28:43.764Z,2.97
2023-04-29T14:31:13.683Z,2.97
2023-04-29T14:33:40.688Z,3.03
2023-04-29T14:36:07.795Z,2.57
2023-04-29T14:38:34.862Z,2.60
2023-04-29T14:41:01.572Z,2.90
2023-04-29T14:43:29.076Z,2.40
2023-04-29T14:45:56.147Z,2.50
2023-04-29T14:48:23.533Z,2.40
2023-04-29T14:50:50.266Z,2.57
2023-04-29T14:53:17.136Z,2.50
2023-04-29T14:55:44.056Z,3.00
2023-04-29T14:58:10.847Z,2.60
2023-04-29T15:00:37.662Z,2.10
2023-04-29T15:03:05.391Z,2.30
2023-04-29T15:05:32.278Z,2.87
2023-04-29T15:08:00.498Z,2.77
2023-04-29T15:10:27.847Z,2.47
2023-04-29T15:12:55.107Z,3.10
2023-04-29T15:15:23.269Z,3.13
2023-04-29T15:17:50.205Z,3.07
2023-04-29T15:20:17.121Z,2.57
2023-04-29T15:22:44.072Z,3.20
2023-04-29T15:25:10.981Z,3.10
2023-04-29T15:27:37.972Z,2.40
2023-04-29T15:30:05.877Z,3.00
2023-04-29T15:32:32.955Z,2.77
2023-04-29T15:35:01.194Z,2.20
2023-04-29T15:37:29.972Z,2.53
2023-04-29T15:39:59.610Z,2.20
2023-04-29T15:42:26.746Z,2.60
2023-04-29T15:44:53.594Z,2.23
2023-04-29T15:47:20.470Z,2.60
2023-04-29T15:49:47.223Z,2.10
2023-04-29T15:52:14.005Z,2.40
2023-04-29T15:54:41.037Z,2.40
2023-04-29T15:57:07.932Z,2.40
2023-04-29T15:59:34.718Z,1.90
2023-04-29T16:02:03.164Z,2.60
2023-04-29T16:04:31.468Z,2.60
2023-04-29T16:06:58.239Z,2.80
2023-04-29T16:09:27.596Z,2.80
2023-04-29T16:11:54.426Z,1.93
2023-04-29T16:14:21.209Z,2.57
2023-04-29T16:16:47.967Z,2.90
2023-04-29T16:19:14.990Z,2.90
2023-04-29T16:21:45.426Z,2.60
2023-04-29T16:24:13.015Z,3.27
2023-04-29T16:26:40.770Z,2.67
2023-04-29T16:29:08.874Z,2.63
2023-04-29T16:31:35.944Z,2.63
2023-04-29T16:34:03.311Z,3.50
2023-04-29T16:36:31.600Z,2.40
2023-04-29T16:38:58.379Z,2.67
2023-04-29T16:41:26.658Z,2.23
2023-04-29T16:43:54.245Z,2.40
2023-04-29T16:46:21.696Z,2.40
2023-04-29T16:48:51.364Z,2.40
2023-04-29T16:51:21.403Z,3.80
2023-04-29T16:53:48.360Z,3.80
2023-04-29T16:56:15.115Z,3.60
2023-04-29T16:58:41.835Z,3.20
2023-04-29T17:01:08.773Z,4.30
2023-04-29T17:03:36.131Z,3.60
2023-04-29T17:06:04.065Z,3.73
2023-04-29T17:08:31.175Z,3.60
2023-04-29T17:10:57.977Z,3.37
2023-04-29T17:13:24.805Z,3.37
2023-04-29T17:15:51.799Z,3.30
2023-04-29T17:18:20.129Z,3.23
2023-04-29T17:20:50.933Z,3.40
2023-04-29T17:23:18.422Z,3.27
2023-04-29T17:25:45.318Z,3.30
2023-04-29T17:28:15.201Z,3.27
2023-04-29T17:30:42.047Z,3.67
2023-04-29T17:33:09.176Z,3.70
2023-04-29T17:35:38.925Z,3.60
2023-04-29T17:38:05.725Z,2.80
2023-04-29T17:40:32.586Z,3.03
2023-04-29T17:42:59.328Z,3.50
2023-04-29T17:45:26.250Z,3.47
2023-04-29T17:47:53.184Z,3.40
2023-04-29T17:50:20.258Z,2.70
2023-04-29T17:52:47.157Z,2.73
2023-04-29T17:55:16.503Z,3.00
2023-04-29T17:57:43.455Z,3.20
2023-04-29T18:00:11.323Z,2.80
2023-04-29T18:02:38.242Z,3.77
2023-04-29T18:05:05.338Z,3.50
2023-04-29T18:07:32.298Z,3.70
2023-04-29T18:09:59.054Z,3.37
2023-04-29T18:12:25.934Z,4.03
2023-04-29T18:14:55.899Z,3.60
2023-04-29T18:17:22.856Z,3.20
2023-04-29T18:19:49.711Z,3.37
2023-04-29T18:22:16.744Z,4.10
2023-04-29T18:24:43.705Z,3.60
2023-04-29T18:27:10.548Z,3.43
2023-04-29T18:29:37.317Z,3.53
2023-04-29T18:32:06.460Z,4.20
2023-04-29T18:34:34.622Z,4.10
2023-04-29T18:37:01.705Z,3.37
2023-04-29T18:39:28.655Z,3.00
2023-04-29T18:41:55.996Z,2.43
2023-04-29T18:44:22.996Z,2.07
2023-04-29T18:46:49.908Z,2.00
2023-04-29T18:49:17.943Z,2.30
2023-04-29T18:51:48.146Z,1.83
2023-04-29T18:54:17.366Z,1.87
2023-04-29T18:56:49.165Z,2.10
2023-04-29T18:59:19.211Z,1.97
2023-04-29T19:01:47.218Z,1.80
2023-04-29T19:04:14.717Z,1.67
2023-04-29T19:06:42.409Z,1.73
2023-04-29T19:09:09.633Z,1.87
2023-04-29T19:11:36.427Z,1.97
2023-04-29T19:14:06.344Z,1.73
2023-04-29T19:16:35.543Z,1.40
2023-04-29T19:19:04.168Z,2.17
2023-04-29T19:21:33.244Z,2.07
2023-04-29T19:24:00.211Z,1.60
2023-04-29T19:26:27.076Z,1.80
2023-04-29T19:28:54.135Z,1.50
2023-04-29T19:31:30.045Z,1.70
2023-04-29T19:34:00.194Z,2.00
2023-04-29T19:36:27.010Z,1.60
2023-04-29T19:38:53.822Z,1.77
2023-04-29T19:41:24.153Z,1.70
2023-04-29T19:43:51.266Z,1.80
2023-04-29T19:46:18.091Z,1.90
2023-04-29T19:48:44.952Z,2.03
2023-04-29T19:51:11.769Z,2.23
2023-04-29T19:53:43.447Z,2.00
2023-04-29T19:56:10.340Z,2.07
2023-04-29T19:58:37.181Z,2.40
2023-04-29T20:01:04.074Z,1.90
2023-04-29T20:03:30.992Z,2.17
2023-04-29T20:05:59.192Z,2.37
2023-04-29T20:08:26.705Z,2.07
2023-04-29T20:10:54.145Z,2.43
2023-04-29T20:13:23.915Z,2.60
2023-04-29T20:15:50.825Z,2.53
2023-04-29T20:18:18.038Z,2.13
2023-04-29T20:20:45.480Z,3.27
2023-04-29T20:23:14.300Z,2.50
2023-04-29T20:25:41.355Z,2.23
2023-04-29T20:28:09.264Z,2.30
2023-04-29T20:30:36.715Z,2.60
2023-04-29T20:33:03.712Z,2.03
2023-04-29T20:35:30.575Z,2.50
2023-04-29T20:37:57.502Z,2.33
2023-04-29T20:40:24.315Z,2.10
2023-04-29T20:42:51.128Z,2.10
2023-04-29T20:45:18.471Z,1.83
2023-04-29T20:47:46.719Z,2.53
2023-04-29T20:50:13.660Z,2.60
2023-04-29T20:52:40.348Z,2.13
2023-04-29T20:55:07.390Z,2.30
2023-04-29T20:57:34.111Z,2.00
2023-04-29T21:00:00.988Z,2.10
2023-04-29T21:02:31.066Z,2.57
2023-04-29T21:04:57.957Z,2.63
2023-04-29T21:07:24.750Z,3.17
2023-04-29T21:09:51.783Z,2.93
2023-04-29T21:12:18.685Z,3.10
2023-04-29T21:14:45.599Z,2.97
2023-04-29T21:17:12.361Z,3.00
2023-04-29T21:19:39.139Z,2.70
2023-04-29T21:22:08.896Z,3.67
2023-04-29T21:24:35.678Z,3.90
2023-04-29T21:27:04.710Z,3.20
2023-04-29T21:29:31.488Z,3.50
2023-04-29T21:31:58.741Z,3.40
2023-04-29T21:34:28.719Z,2.77
2023-04-29T21:36:58.507Z,3.87
2023-04-29T21:39:28.073Z,3.67
2023-04-29T21:41:58.626Z,3.47
2023-04-29T21:44:25.568Z,4.03
2023-04-29T21:46:53.137Z,3.50
2023-04-29T21:49:20.267Z,3.30
2023-04-29T21:51:47.159Z,4.13
2023-04-29T21:54:13.874Z,3.73
2023-04-29T21:56:40.722Z,4.50
2023-04-29T21:59:07.649Z,4.03
2023-04-29T22:01:43.319Z,4.10
2023-04-29T22:04:13.691Z,4.73
2023-04-29T22:06:40.512Z,4.20
2023-04-29T22:09:07.507Z,4.50
2023-04-29T22:11:34.670Z,4.37
2023-04-29T22:14:01.603Z,4.70
2023-04-29T22:16:28.513Z,4.57
2023-04-29T22:18:57.495Z,5.60
2023-04-29T22:21:24.639Z,4.50
2023-04-29T22:23:51.568Z,5.10
2023-04-29T22:26:18.764Z,5.53
2023-04-29T22:28:48.398Z,5.60
2023-04-29T22:31:15.200Z,5.07
2023-04-29T22:33:42.033Z,5.80
2023-04-29T22:36:08.834Z,5.40
2023-04-29T22:38:37.331Z,5.93
2023-04-29T22:41:04.609Z,5.40
2023-04-29T22:43:31.491Z,5.80
2023-04-29T22:45:58.370Z,5.53
2023-04-29T22:48:27.474Z,6.10
2023-04-29T22:50:56.151Z,5.53
2023-04-29T22:53:23.202Z,6.27
2023-04-29T22:55:51.842Z,6.30
2023-04-29T22:58:19.416Z,6.23
2023-04-29T23:00:49.819Z,6.17
2023-04-29T23:03:16.576Z,6.20
2023-04-29T23:05:43.336Z,6.00
2023-04-29T23:08:10.126Z,6.97
2023-04-29T23:10:36.871Z,7.00
2023-04-29T23:13:04.068Z,6.87
2023-04-29T23:15:31.131Z,7.93
2023-04-29T23:17:58.648Z,7.40
2023-04-29T23:20:25.830Z,7.50
2023-04-29T23:22:52.667Z,7.60
2023-04-29T23:25:19.525Z,7.60
2023-04-29T23:27:46.358Z,7.37
2023-04-29T23:30:13.208Z,8.73
2023-04-29T23:32:40.177Z,8.33
2023-04-29T23:35:07.683Z,8.60
2023-04-29T23:37:34.752Z,9.40
2023-04-29T23:40:01.556Z,8.70
2023-04-29T23:42:28.351Z,7.93
2023-04-29T23:44:58.085Z,7.80
2023-04-29T23:47:24.855Z,8.90
2023-04-29T23:49:54.896Z,8.40
2023-04-29T23:52:21.955Z,9.43
2023-04-29T23:54:48.671Z,8.47
2023-04-29T23:57:15.531Z,9.33
2023-04-29T23:59:42.598Z,8.37
